Cape Reinga, New Zealand
Current Conditions -  °F | °C
As of 3:30 AM on Saturday 01 Nov 2014 (Local Time) from NZAA Reporting Station
Light Rain Light Rain  
Wind Chill: 59°   Ceiling: 1400
Heat Index: 59°   Visibility: 6mi
Dew Point: 57°   Wind: 9mph
Humidity: 94%   Direction: 260°W
Pressure: 30.03"   Gusts: NA
Location:  34.43°S, 172.68°E
Report Text: NZAA 311530Z AUTO 26008KT 9000 -RA BKN014/// BKN020///BKN025/// 15/14 Q1017 BECMG 9999
Loading
Personal Weather Stations






























Interactive Weather Map
Tropical Storm Tracking
New forecast layout! Learn more

10-Day Weather Forecast

Advertisements
Track Severe Weather on mobile